Pireps
You are here: Olympic Virtual Pireps

Flight OLY10047

  • Submitted By: Stavros Sarikas
  • Departure Airport: Manchester Airport (EGCC)
  • Arrival Airport: Copenhagen Kastrup Airport (EKCH)
  • Aircraft: A320-200 (SX-OAH)
  • Flight Time: 02.05
  • Date Submitted: 05/09/2017
  • Route: DESIG UL975 GOLES Y70 VEGUS UT29 LIBSO UL975 LESRA L975 BAVTA L983 TUDLO
  • Status: Accepted
Flight Details
Gross Revenue:
(138 load / € 134.50 per unit
€ 18, 561.00
Fuel Cost:
(-4156 fuel used @ 0.19 / unit)
(€ -789.64)

Additional Log Information:

View Log

Aircraft Used in flight is Airbus A320 British Airways G-EUUU
21:08 Boarding
21:08 Navigation Lights ON at 270 Feet
21:08 Beacon Lights ON at 270 Feet
21:08 Brakes are On
21:08 In Air Refuel Suspected
21:12 Engine 2 Started
21:14 Engine 1 Started
21:15 Brakes are Released
21:15 Pushing back
21:15 Flaps 3 Selected at 270ft and 1kts
21:16 Taxi Lights ON at 270 Feet
21:17 Landing Lights ON at 270 AGL
21:17 Strobe Lights ON at 270 Feet
21:18 You Took off @ 138 Knots and Flaps at Position 3 With a heading of 50 Degrees
Departure Weather EGCC 051750Z 27006KT 9999 FEW020 15/12 Q1012
Departure Coordinates 53.3593650229162/ -2.26326086839877
Takeoff Weight=65671KG Fuel Weight=10825KG
21:19 TOC Reached
21:19 Landing Gear Up @ 139 Knots and 330 Feet
21:19 Taxi Lights OFF at 340 Feet
21:21 Flaps 2 Selected at 1870ft and 151kts
21:21 Flaps 0 Selected at 2030ft and 193kts
21:23 Below 10000 feet you are not allowed to go over 250 knots
21:25 Above FL100 you need to switch of the landing lights
21:25 Landing Lights OFF at 10260 AGL
22:37 You exceeded maximum bank angle
22:57 Landing Lights ON at 9740 AGL
23:03 Flaps 1 Selected at 2990ft and 207kts
23:08 Flaps 3 Selected at 1990ft and 182kts
23:09 Landing Gear Down @ 166 Knots and 1990 Feet
23:09 Flaps 4 Selected at 1990ft and 148kts
23:09 Taxi Lights ON at 1990 Feet
23:09 Flaps 5 Selected at 1990ft and 149kts
23:11 You Landed @ 130 Knots with -271 Vertical Speed With a heading of 221 and with 1.0144 G Force
Arrival Weather: EKCH 051950Z 17006KT CAVOK 16/15 Q1016 NOSIG
Arrival Coordinates 55.6105683191862/ 12.6318962912778
Landing Weight=61454KG Fuel Weight=6610KG
23:11 Taxiing to gate
23:12 Landing Lights OFF at 30 AGL
23:12 Strobe Lights OFF at 30 Feet
23:12 Paused
23:12 Flaps 0 Selected at 30ft and 9kts
23:12 Brakes are On
23:13 Unpaused
Pirep logged with OA Virtual Tracking 1.0.2.4

Route Map